createdAt,value
2023-02-11T00:03:23.193Z,9.35
2023-02-11T00:07:36.425Z,9.18
2023-02-11T00:11:58.847Z,9.45
2023-02-11T00:16:17.744Z,10.77
2023-02-11T00:20:30.200Z,10.38
2023-02-11T00:24:42.703Z,10.55
2023-02-11T00:28:55.611Z,9.68
2023-02-11T00:33:08.283Z,9.60
2023-02-11T00:37:20.750Z,9.25
2023-02-11T00:41:34.231Z,8.45
2023-02-11T00:45:46.746Z,9.13
2023-02-11T00:49:59.994Z,9.00
2023-02-11T00:54:12.668Z,9.88
2023-02-11T00:58:25.268Z,8.88
2023-02-11T01:02:37.710Z,9.32
2023-02-11T01:06:54.487Z,9.88
2023-02-11T01:11:20.214Z,9.32
2023-02-11T01:15:33.692Z,8.93
2023-02-11T01:19:46.250Z,9.75
2023-02-11T01:23:58.940Z,10.75
2023-02-11T01:28:24.863Z,9.80
2023-02-11T01:32:37.403Z,10.90
2023-02-11T01:36:49.886Z,9.50
2023-02-11T01:41:06.524Z,9.45
2023-02-11T01:45:47.835Z,8.98
2023-02-11T01:50:02.518Z,8.82
2023-02-11T01:54:40.713Z,7.97
2023-02-11T01:58:56.590Z,8.77
2023-02-11T02:03:20.887Z,8.80
2023-02-11T02:07:54.365Z,7.97
2023-02-11T02:12:06.974Z,7.80
2023-02-11T02:16:22.477Z,6.93
2023-02-11T02:20:56.231Z,8.48
2023-02-11T02:25:20.583Z,8.45
2023-02-11T02:30:02.319Z,8.82
2023-02-11T02:34:51.611Z,7.38
2023-02-11T02:39:11.813Z,7.23
2023-02-11T02:43:27.110Z,6.70
2023-02-11T02:47:39.566Z,7.07
2023-02-11T02:52:03.601Z,7.85
2023-02-11T02:56:46.187Z,7.78
2023-02-11T03:01:17.617Z,7.43
2023-02-11T03:05:50.577Z,7.07
2023-02-11T03:10:20.019Z,6.65
2023-02-11T03:14:34.860Z,6.63
2023-02-11T03:18:55.898Z,6.20
2023-02-11T03:23:34.315Z,6.78
2023-02-11T03:28:10.232Z,6.43
2023-02-11T03:32:42.630Z,5.97
2023-02-11T03:37:03.343Z,5.38
2023-02-11T03:41:22.626Z,5.20
2023-02-11T03:45:38.284Z,7.17
2023-02-11T03:49:54.415Z,6.03
2023-02-11T03:54:12.464Z,6.07
2023-02-11T03:58:24.895Z,6.07
2023-02-11T04:02:47.404Z,5.82
2023-02-11T04:06:59.850Z,6.50
2023-02-11T04:11:12.347Z,5.38
2023-02-11T04:15:25.220Z,6.13
2023-02-11T04:19:37.898Z,5.53
2023-02-11T04:23:50.418Z,6.82
2023-02-11T04:28:03.193Z,6.70
2023-02-11T04:32:25.729Z,6.28
2023-02-11T04:36:38.596Z,5.95
2023-02-11T04:40:51.771Z,5.60
2023-02-11T04:45:04.834Z,7.53
2023-02-11T04:49:18.683Z,6.13
2023-02-11T04:53:31.123Z,6.05
2023-02-11T04:57:43.631Z,5.88
2023-02-11T05:01:56.096Z,6.55
2023-02-11T05:06:10.082Z,6.07
2023-02-11T05:10:30.168Z,5.60
2023-02-11T05:14:42.769Z,5.90
2023-02-11T05:18:56.576Z,7.40
2023-02-11T05:23:09.170Z,7.45
2023-02-11T05:27:21.642Z,7.80
2023-02-11T05:31:34.136Z,5.90
2023-02-11T05:35:46.589Z,7.00
2023-02-11T05:39:59.096Z,6.07
2023-02-11T05:44:11.568Z,6.22
2023-02-11T05:48:24.708Z,6.32
2023-02-11T05:52:37.242Z,5.20
2023-02-11T05:56:50.045Z,7.15
2023-02-11T06:01:02.471Z,4.70
2023-02-11T06:05:15.020Z,5.22
2023-02-11T06:09:28.125Z,6.10
2023-02-11T06:13:51.739Z,5.28
2023-02-11T06:18:04.381Z,5.07
2023-02-11T06:22:23.010Z,6.50
2023-02-11T06:26:35.544Z,6.22
2023-02-11T06:30:48.208Z,4.70
2023-02-11T06:35:01.448Z,6.30
2023-02-11T06:39:14.470Z,4.15
2023-02-11T06:43:27.070Z,4.93
2023-02-11T06:47:41.111Z,5.10
2023-02-11T06:51:53.614Z,4.80
2023-02-11T06:56:09.477Z,4.30
2023-02-11T07:00:22.200Z,4.53
2023-02-11T07:04:34.665Z,4.95
2023-02-11T07:08:48.928Z,4.75
2023-02-11T07:13:01.376Z,4.75
2023-02-11T07:17:13.882Z,4.50
2023-02-11T07:21:26.448Z,5.50
2023-02-11T07:25:47.799Z,5.18
2023-02-11T07:30:00.277Z,4.60
2023-02-11T07:34:12.784Z,4.75
2023-02-11T07:38:25.255Z,5.18
2023-02-11T07:42:38.092Z,5.10
2023-02-11T07:46:50.760Z,6.10
2023-02-11T07:51:20.481Z,5.93
2023-02-11T07:55:34.532Z,5.50
2023-02-11T07:59:47.033Z,5.63
2023-02-11T08:04:01.741Z,5.97
2023-02-11T08:08:14.165Z,5.60
2023-02-11T08:12:27.289Z,5.85
2023-02-11T08:16:40.248Z,6.03
2023-02-11T08:20:52.953Z,6.55
2023-02-11T08:25:15.615Z,5.97
2023-02-11T08:29:28.126Z,6.97
2023-02-11T08:33:43.897Z,6.63
2023-02-11T08:37:56.346Z,6.07
2023-02-11T08:42:08.838Z,5.57
2023-02-11T08:46:28.743Z,5.93
2023-02-11T08:50:41.240Z,4.57
2023-02-11T08:54:53.709Z,6.18
2023-02-11T08:59:07.816Z,5.72
2023-02-11T09:03:20.298Z,5.35
2023-02-11T09:07:32.790Z,5.57
2023-02-11T09:11:58.017Z,6.10
2023-02-11T09:16:19.040Z,6.32
2023-02-11T09:20:31.570Z,6.22
2023-02-11T09:24:48.929Z,6.57
2023-02-11T09:29:02.698Z,7.25
2023-02-11T09:33:15.195Z,7.93
2023-02-11T09:37:27.654Z,8.15
2023-02-11T09:42:44.265Z,9.73
2023-02-11T09:47:06.160Z,6.63
2023-02-11T09:51:38.231Z,7.65
2023-02-11T09:56:00.269Z,7.95
2023-02-11T10:00:33.068Z,7.55
2023-02-11T10:05:18.394Z,9.68
2023-02-11T10:10:04.562Z,8.30
2023-02-11T10:14:19.824Z,7.55
2023-02-11T10:18:46.726Z,7.60
2023-02-11T10:23:11.314Z,7.35
2023-02-11T10:27:32.495Z,7.63
2023-02-11T10:31:47.219Z,7.82
2023-02-11T10:36:13.632Z,8.07
2023-02-11T10:40:30.352Z,8.15
2023-02-11T10:44:58.133Z,7.70
2023-02-11T10:49:10.654Z,6.70
2023-02-11T10:53:25.144Z,9.65
2023-02-11T10:57:51.278Z,10.18
2023-02-11T11:02:20.067Z,8.93
2023-02-11T11:06:34.491Z,6.40
2023-02-11T11:11:05.212Z,6.65
2023-02-11T11:15:28.247Z,8.68
2023-02-11T11:19:40.670Z,10.80
2023-02-11T11:23:59.966Z,8.77
2023-02-11T11:28:25.846Z,9.75
2023-02-11T11:32:38.511Z,8.82
2023-02-11T11:37:12.716Z,8.70
2023-02-11T11:41:33.966Z,7.60
2023-02-11T11:45:57.468Z,6.95
2023-02-11T11:50:32.159Z,11.85
2023-02-11T11:54:54.097Z,10.30
2023-02-11T11:59:17.256Z,9.15
2023-02-11T12:04:03.271Z,8.95
2023-02-11T12:09:04.802Z,9.25
2023-02-11T12:13:44.117Z,8.88
2023-02-11T12:18:16.837Z,9.57
2023-02-11T12:23:04.127Z,7.63
2023-02-11T12:27:59.311Z,8.50
2023-02-11T12:33:03.549Z,9.40
2023-02-11T12:37:42.307Z,10.32
2023-02-11T12:42:22.714Z,9.02
2023-02-11T12:47:02.877Z,9.45
2023-02-11T12:51:59.172Z,10.25
2023-02-11T12:56:22.463Z,9.32
2023-02-11T13:00:54.044Z,8.68
2023-02-11T13:05:39.058Z,8.75
2023-02-11T13:10:25.011Z,9.98
2023-02-11T13:14:42.054Z,10.50
2023-02-11T13:19:14.897Z,7.63
2023-02-11T13:24:12.011Z,8.60
2023-02-11T13:28:30.411Z,8.65
2023-02-11T13:32:54.869Z,8.98
2023-02-11T13:37:21.742Z,10.27
2023-02-11T13:41:37.936Z,9.15
2023-02-11T13:45:52.593Z,7.00
2023-02-11T13:50:09.252Z,6.65
2023-02-11T13:54:36.755Z,8.98
2023-02-11T13:58:50.988Z,8.13
2023-02-11T14:03:30.343Z,7.80
2023-02-11T14:08:30.464Z,10.43
2023-02-11T14:12:42.955Z,8.75
2023-02-11T14:17:08.385Z,8.13
2023-02-11T14:21:35.850Z,8.90
2023-02-11T14:26:03.530Z,11.52
2023-02-11T14:30:50.462Z,9.13
2023-02-11T14:35:33.152Z,10.73
2023-02-11T14:40:07.179Z,11.45
2023-02-11T14:44:28.249Z,11.85
2023-02-11T14:48:47.610Z,11.00
2023-02-11T14:53:02.635Z,10.02
2023-02-11T14:57:19.885Z,10.52
2023-02-11T15:01:36.039Z,12.30
2023-02-11T15:05:58.704Z,10.77
2023-02-11T15:10:47.916Z,9.90
2023-02-11T15:19:39.410Z,9.05
2023-02-11T15:24:01.489Z,10.50
2023-02-11T15:28:29.721Z,9.25
2023-02-11T15:32:45.962Z,8.40
2023-02-11T15:36:58.711Z,7.47
2023-02-11T15:41:36.922Z,8.77
2023-02-11T15:45:52.065Z,7.35
2023-02-11T15:50:07.109Z,6.30
2023-02-11T15:54:23.240Z,7.10
2023-02-11T15:58:43.990Z,6.20
2023-02-11T16:02:56.809Z,6.80
2023-02-11T16:07:50.518Z,6.95
2023-02-11T16:12:27.931Z,7.32
2023-02-11T16:16:41.512Z,7.15
2023-02-11T16:20:54.623Z,7.15
2023-02-11T16:25:08.840Z,7.43
2023-02-11T16:29:28.340Z,9.25
2023-02-11T16:33:40.834Z,12.00
2023-02-11T16:37:53.282Z,8.85
2023-02-11T16:42:07.988Z,10.32
2023-02-11T16:46:20.644Z,9.80
2023-02-11T16:50:33.085Z,7.88
2023-02-11T16:54:45.526Z,8.32
2023-02-11T16:58:58.079Z,8.63
2023-02-11T17:03:22.981Z,8.57
2023-02-11T17:07:36.095Z,8.43
2023-02-11T17:11:49.153Z,8.45
2023-02-11T17:16:01.675Z,9.15
2023-02-11T17:20:15.695Z,11.75
2023-02-11T17:24:28.266Z,12.82
2023-02-11T17:28:40.730Z,18.02
2023-02-11T17:32:53.371Z,10.57
2023-02-11T17:37:09.886Z,10.02
2023-02-11T17:41:22.367Z,9.77
2023-02-11T17:45:36.671Z,8.02
2023-02-11T17:49:49.165Z,7.40
2023-02-11T17:54:06.197Z,7.15
2023-02-11T17:58:18.700Z,6.78
2023-02-11T18:02:31.164Z,6.88
2023-02-11T18:06:44.116Z,7.57
2023-02-11T18:10:56.649Z,7.07
2023-02-11T18:15:09.568Z,7.70
2023-02-11T18:19:22.336Z,7.03
2023-02-11T18:23:34.978Z,7.82
2023-02-11T18:27:47.502Z,9.32
2023-02-11T18:32:00.506Z,9.18
2023-02-11T18:36:16.104Z,8.05
2023-02-11T18:40:28.645Z,7.88
2023-02-11T18:44:41.299Z,8.30
2023-02-11T18:48:56.417Z,7.68
2023-02-11T18:53:14.536Z,8.52
2023-02-11T18:57:27.082Z,8.80
2023-02-11T19:01:41.586Z,11.40
2023-02-11T19:05:55.128Z,9.80
2023-02-11T19:10:08.562Z,8.60
2023-02-11T19:14:28.640Z,7.68
2023-02-11T19:18:41.538Z,8.10
2023-02-11T19:22:53.966Z,7.82
2023-02-11T19:27:07.045Z,7.53
2023-02-11T19:31:19.646Z,8.65
2023-02-11T19:35:38.240Z,8.52
2023-02-11T19:39:50.842Z,9.23
2023-02-11T19:44:04.714Z,9.52
2023-02-11T19:48:27.207Z,9.13
2023-02-11T19:52:41.105Z,12.98
2023-02-11T19:56:55.587Z,10.13
2023-02-11T20:01:10.762Z,11.93
2023-02-11T20:05:23.194Z,9.73
2023-02-11T20:09:35.653Z,10.20
2023-02-11T20:13:48.126Z,10.02
2023-02-11T20:18:00.577Z,10.07
2023-02-11T20:22:12.997Z,9.98
2023-02-11T20:26:34.187Z,8.95
2023-02-11T20:30:46.692Z,9.23
2023-02-11T20:34:59.739Z,10.48
2023-02-11T20:39:17.826Z,9.73
2023-02-11T20:43:30.302Z,9.70
2023-02-11T20:47:52.771Z,10.38
2023-02-11T20:52:05.411Z,10.35
2023-02-11T20:56:22.122Z,10.35
2023-02-11T21:00:37.699Z,10.82
2023-02-11T21:04:51.772Z,9.68
2023-02-11T21:09:06.487Z,10.93
2023-02-11T21:13:18.925Z,10.40
2023-02-11T21:17:32.398Z,11.18
2023-02-11T21:21:45.192Z,10.82
2023-02-11T21:25:58.399Z,10.35
2023-02-11T21:30:12.395Z,11.90
2023-02-11T21:34:24.827Z,11.32
2023-02-11T21:38:37.468Z,12.48
2023-02-11T21:42:49.893Z,11.48
2023-02-11T21:47:02.438Z,10.65
2023-02-11T21:51:24.874Z,11.15
2023-02-11T21:55:38.587Z,10.60
2023-02-11T21:59:51.024Z,10.70
2023-02-11T22:04:04.462Z,10.32
2023-02-11T22:08:19.192Z,10.13
2023-02-11T22:12:32.619Z,10.68
2023-02-11T22:16:55.116Z,10.48
2023-02-11T22:21:13.011Z,10.15
2023-02-11T22:25:25.476Z,11.10
2023-02-11T22:29:37.905Z,10.43
2023-02-11T22:33:51.130Z,11.25
2023-02-11T22:38:05.253Z,9.15
2023-02-11T22:42:17.835Z,10.23
2023-02-11T22:46:30.536Z,9.23
2023-02-11T22:50:43.001Z,10.40
2023-02-11T22:54:55.933Z,10.32
2023-02-11T22:59:13.240Z,10.52
2023-02-11T23:03:26.027Z,11.25
2023-02-11T23:07:38.588Z,10.82
2023-02-11T23:11:55.090Z,11.13
2023-02-11T23:16:22.849Z,11.07
2023-02-11T23:20:41.403Z,10.88
2023-02-11T23:25:01.395Z,11.65
2023-02-11T23:29:14.294Z,11.38
2023-02-11T23:33:27.258Z,14.55
2023-02-11T23:37:39.750Z,11.65
2023-02-11T23:41:53.838Z,11.35
2023-02-11T23:46:08.273Z,10.93
2023-02-11T23:50:20.925Z,13.13
2023-02-11T23:54:34.235Z,12.65
2023-02-11T23:58:50.239Z,10.80
